Contact, Nevada
Current Conditions -  °F | °C
As of 10:53 PM on Tuesday 21 Oct 2014 (Local Time) from KTWF Reporting Station
Clear Clear  
Wind Chill: 31°   Ceiling: Unl
Heat Index: 37°   Visibility: 10mi
Dew Point: 30°   Wind: 8mph
Humidity: 76%   Direction: 180°S
Pressure: 30.1"   Gusts: NA
Location:  41.8136°N, 115.084°W
Report Text: KTWF 220553Z AUTO 18007KT 10SM CLR 03/M01 A3010 RMK AO2 SLP177 T00281011 10117 20028 51002
Loading
Personal Weather Stations






























Interactive Weather Map
Tropical Storm Tracking
New forecast layout! Learn more

10-Day Weather Forecast

Advertisements
Track Severe Weather on mobile